Date,TemperatureHighF,TemperatureAvgF,TemperatureLowF,DewpointHighF,DewpointAvgF,DewpointLowF,HumidityHigh,HumidityAvg,HumidityLow,PressureMaxIn,PressureMinIn,WindSpeedMaxMPH,WindSpeedAvgMPH,GustSpeedMaxMPH,PrecipitationSumIn
2013-1-1,41,38,29,31,26,15,68,63,55,29.98,29.79,10,1,27,0.00
2013-1-2,33,29,24,19,16,12,62,58,53,30.15,29.97,10,1,27,0.00
2013-1-3,33,30,26,21,19,16,68,62,58,30.17,30.04,7,1,25,0.00
2013-1-4,38,35,32,25,24,21,66,62,59,30.06,29.91,3,0,27,0.00
2013-1-5,41,37,33,26,24,21,63,59,55,30.25,29.98,7,0,27,0.00
2013-1-6,44,40,36,33,30,25,80,67,59,30.20,29.93,3,0,22,0.00
2013-1-7,43,41,39,32,28,25,70,60,50,30.37,30.03,7,1,25,0.00
2013-1-8,47,42,38,34,31,26,70,65,58,30.40,30.29,3,0,19,0.00
2013-1-9,50,45,40,40,35,31,77,69,64,30.35,30.10,3,0,19,0.00
2013-1-10,47,44,42,36,29,27,67,56,48,30.51,30.19,10,1,27,0.00
2013-1-11,46,41,39,43,33,26,92,72,55,30.51,30.07,10,1,27,0.10
2013-1-12,47,45,43,44,42,41,93,91,88,30.15,30.04,7,2,27,0.04
2013-1-13,49,46,43,47,44,41,94,92,89,30.13,29.97,3,0,22,0.00
2013-1-14,57,51,40,54,45,34,96,81,59,30.26,29.89,13,1,27,0.06
2013-1-15,40,38,36,34,29,27,82,70,63,30.31,30.19,13,3,27,0.10
2013-1-16,39,35,33,35,32,28,90,87,71,30.19,29.77,13,2,27,0.39
2013-1-17,44,41,37,35,31,26,85,68,60,30.06,29.88,19,1,27,0.00
2013-1-18,36,30,26,26,15,10,65,55,45,30.44,29.98,13,2,27,0.00
2013-1-19,50,41,31,32,27,16,69,58,50,30.36,29.88,3,0,27,0.00
2013-1-20,53,44,32,35,28,14,67,53,35,30.01,29.66,10,1,27,0.00
2013-1-21,33,31,28,19,15,12,63,52,47,30.06,29.80,7,0,25,0.00
2013-1-22,29,22,16,18,7,-1,63,51,41,30.17,29.79,16,1,27,0.00
2013-1-23,20,16,13,3,1,-2,56,50,45,30.21,30.13,10,1,27,0.00
2013-1-24,23,18,15,5,3,2,61,51,43,30.36,30.09,16,2,27,0.00
2013-1-25,25,20,15,16,8,1,74,60,51,30.38,30.03,16,1,27,0.00
2013-1-26,27,22,18,14,11,8,75,63,51,30.33,30.01,13,1,27,0.00
2013-1-27,33,27,21,16,13,9,67,56,47,30.48,30.33,10,1,27,0.00
2013-1-28,37,33,31,33,25,15,86,72,52,30.45,29.97,3,0,25,0.02
2013-1-29,48,42,36,42,37,32,89,84,77,30.12,29.97,10,1,27,0.00
2013-1-30,55,48,39,52,45,36,94,91,87,30.06,29.34,7,0,27,0.00
2013-1-31,59,46,32,57,34,15,94,66,46,29.75,29.02,10,0,27,0.14
2013-2-1,32,30,26,17,15,12,63,54,44,30.19,29.75,7,1,27,0.00
2013-2-2,30,26,22,20,13,10,76,57,46,30.27,30.02,7,0,25,0.00
2013-2-3,31,28,25,22,20,19,82,73,63,30.02,29.75,10,1,27,0.00
2013-2-4,30,28,25,22,15,13,72,57,50,29.94,29.77,10,0,22,0.00
2013-2-5,32,30,29,28,24,17,86,79,58,29.95,29.86,13,3,27,0.00
2013-2-6,39,34,31,29,24,10,89,68,41,30.32,29.88,10,1,27,0.00
2013-2-7,32,30,28,23,14,9,68,50,40,30.48,30.30,13,3,28,0.00
2013-2-8,34,32,29,32,29,23,94,87,69,30.30,29.59,35,8,35,1.50
2013-2-9,32,29,24,28,20,11,93,73,51,30.30,29.71,13,1,27,0.00
2013-2-10,33,27,20,24,16,10,70,63,56,30.46,30.28,10,0,27,0.00
2013-2-11,45,40,33,43,36,24,94,87,67,30.29,29.62,3,0,22,0.65
2013-2-12,45,42,38,41,31,27,93,66,58,29.94,29.69,7,0,16,0.00
2013-2-13,43,39,35,31,27,24,82,64,58,29.92,29.66,10,0,27,0.04
2013-2-14,44,39,34,34,31,28,84,73,58,29.97,29.67,13,0,25,0.02
2013-2-15,50,43,38,39,35,31,79,72,62,29.98,29.88,7,0,25,0.00
2013-2-16,43,36,32,34,27,19,84,70,57,29.93,29.70,13,2,27,0.04
2013-2-17,32,28,20,18,10,3,57,48,40,29.97,29.62,29,4,29,0.00
2013-2-18,34,26,19,17,10,5,56,50,43,30.20,29.96,10,1,27,0.00
2013-2-19,47,40,33,42,30,17,88,68,49,30.17,29.64,10,0,25,0.02
2013-2-20,40,32,27,30,18,13,67,55,48,29.94,29.69,13,1,27,0.00
2013-2-21,34,29,26,18,15,13,62,56,51,30.24,29.93,10,2,27,0.00
2013-2-22,37,32,27,31,23,16,77,68,62,30.37,30.23,13,2,28,0.00
2013-2-23,40,37,36,38,34,31,92,89,77,30.25,29.78,19,2,27,0.33
2013-2-24,47,40,35,38,33,24,92,76,61,29.93,29.70,10,2,27,0.04
2013-2-25,44,39,33,30,28,24,72,64,57,30.20,29.93,13,1,27,0.00
2013-2-26,44,39,36,35,32,29,89,74,64,30.26,29.86,26,3,27,0.12
2013-2-27,46,41,36,45,38,33,95,91,80,29.87,29.47,35,7,35,1.50
2013-2-28,49,45,40,39,36,32,81,72,62,29.59,29.51,7,0,27,0.00
2013-3-1,45,41,37,33,31,28,77,68,60,29.74,29.56,10,1,27,0.00
2013-3-2,41,37,33,28,26,25,76,66,60,29.75,29.66,7,1,27,0.00
2013-3-3,39,33,30,25,22,18,74,63,54,29.73,29.62,16,1,27,0.00
2013-3-4,39,34,28,24,22,17,68,60,54,29.86,29.72,10,2,27,0.00
2013-3-5,45,39,32,30,26,22,68,61,52,29.98,29.85,10,2,27,0.00
2013-3-6,42,40,38,35,32,29,82,73,63,29.96,29.81,32,13,36,0.00
2013-3-7,38,36,34,32,30,28,87,79,68,30.04,29.87,26,4,28,0.37
2013-3-8,39,34,32,34,31,29,89,87,80,30.02,29.96,13,2,28,0.79
2013-3-11,53,47,40,46,42,35,89,83,75,30.29,30.05,10,0,22,0.00
2013-3-12,55,50,45,53,47,38,94,88,75,30.04,29.64,10,1,27,0.22
2013-3-13,50,45,40,38,32,28,77,63,46,29.86,29.75,7,0,26,0.00
2013-3-14,40,36,31,28,18,13,63,48,37,29.93,29.81,10,2,27,0.00
2013-3-15,47,39,31,33,24,15,62,53,45,29.95,29.68,10,1,27,0.00
2013-3-16,42,37,34,30,27,22,85,68,53,29.89,29.75,7,1,27,0.04
2013-3-17,39,35,30,29,22,16,80,58,45,30.26,29.89,13,2,27,0.00
2013-3-18,35,32,29,31,20,11,91,62,44,30.37,29.99,16,6,28,0.00
2013-3-19,43,38,33,36,34,30,92,86,71,29.99,29.66,29,4,29,1.12
2013-3-20,44,39,34,30,24,22,71,55,45,29.86,29.75,7,0,27,0.00
2013-3-21,40,36,33,26,20,16,73,54,44,29.81,29.59,13,1,27,0.00
2013-3-22,42,36,30,24,21,16,63,54,47,29.84,29.69,16,0,27,0.00
2013-3-23,45,39,34,26,23,21,62,53,44,29.89,29.78,13,1,27,0.00
2013-3-24,45,39,34,28,24,21,61,55,46,29.92,29.67,10,1,27,0.00
2013-3-25,41,38,36,34,30,27,86,73,61,29.68,29.43,26,6,28,0.21
2013-3-26,50,44,39,33,31,29,73,60,47,29.82,29.54,10,1,27,0.00
2013-3-27,51,44,38,32,29,25,64,55,42,29.94,29.82,10,1,22,0.00
2013-3-28,49,44,39,35,32,30,71,62,54,30.07,29.92,16,1,27,0.00
2013-3-29,54,47,42,34,32,30,65,55,43,30.11,30.01,13,1,27,0.00
2013-3-30,56,48,42,36,32,29,65,53,36,30.13,30.02,7,0,16,0.00
2013-3-31,54,49,44,43,37,32,87,65,51,30.09,29.64,7,0,25,0.04
2013-4-1,62,50,40,47,40,20,88,70,43,29.87,29.58,13,1,27,0.00
2013-4-2,43,39,34,21,19,18,53,44,37,30.04,29.87,10,1,25,0.00
2013-4-3,44,39,34,20,18,15,50,42,34,30.26,30.04,10,1,27,0.00
2013-4-4,48,41,34,33,24,17,61,51,43,30.35,30.06,7,1,25,0.00
2013-4-5,59,49,42,34,29,23,66,49,32,30.06,29.67,10,1,26,0.00
2013-4-6,49,42,37,30,22,15,63,45,31,30.27,29.97,16,1,27,0.00
2013-4-7,53,47,40,44,37,30,77,67,54,30.27,29.96,7,0,27,0.00
2013-4-8,68,58,51,48,46,44,76,65,49,30.05,29.93,7,0,25,0.00
2013-4-9,78,66,52,57,48,44,84,57,31,29.97,29.86,7,0,27,0.00
2013-4-10,69,62,57,55,51,46,87,66,49,29.92,29.77,10,1,27,0.04
2013-4-11,60,56,48,57,49,40,91,80,70,30.01,29.73,16,2,27,0.00
2013-4-12,48,43,41,41,39,38,91,87,75,30.00,29.67,29,9,29,1.50
2013-4-13,56,48,41,43,40,38,91,75,57,29.94,29.70,10,1,25,0.11
2013-4-14,55,52,48,44,37,31,80,57,43,30.19,29.93,13,1,27,0.00
2013-4-15,55,50,45,40,34,30,74,56,46,30.35,30.19,13,1,26,0.00
2013-4-16,61,55,48,53,48,39,81,76,71,30.34,30.09,7,0,25,0.00
2013-4-17,66,61,56,56,48,42,85,64,43,30.26,30.07,10,1,27,0.02
2013-4-18,60,56,52,51,45,41,87,68,54,30.32,30.07,16,1,27,0.00
2013-4-19,69,61,54,62,57,51,93,86,76,30.07,29.60,7,0,22,0.00
2013-4-20,64,55,49,61,40,30,89,57,41,30.25,29.63,7,1,27,0.00
2013-4-21,50,45,39,34,27,23,61,49,38,30.58,30.25,13,2,27,0.00
2013-4-22,51,47,42,37,34,31,73,62,51,30.62,30.46,26,6,28,0.00
2013-4-23,52,46,41,43,38,33,83,74,66,30.46,30.07,22,5,27,0.00
2013-4-24,61,53,45,51,45,39,85,75,65,30.08,29.81,7,0,27,0.00
2013-4-25,61,55,48,53,37,31,86,53,34,30.23,29.83,7,1,27,0.00
2013-4-26,63,57,52,39,37,32,59,47,32,30.36,30.22,10,0,27,0.00
2013-4-27,65,57,50,39,34,32,51,43,33,30.39,30.25,10,2,28,0.00
2013-4-28,65,58,52,47,38,33,61,48,36,30.28,30.18,13,0,19,0.00
2013-4-29,57,56,54,49,47,43,78,73,61,30.21,30.14,3,0,25,0.00
2013-4-30,63,57,52,48,41,31,80,59,34,30.30,30.17,13,1,28,0.00
2013-5-1,63,56,50,48,40,32,70,56,43,30.45,30.29,16,2,27,0.00
2013-5-2,65,58,51,49,45,43,79,62,52,30.44,30.29,3,0,27,0.00
2013-5-3,59,54,51,45,42,38,77,63,51,30.43,30.32,16,4,28,0.00
2013-5-4,55,52,50,45,44,43,80,76,65,30.34,30.26,19,2,25,0.00
2013-5-26,67,63,59,42,40,39,51,44,39,30.16,29.98,10,1,0,0.02
2013-5-27,72,65,56,46,42,37,50,44,36,30.22,30.08,3,0,0,0.00
2013-5-28,71,62,57,57,51,45,92,68,45,30.19,30.09,10,0,0,0.00
2013-5-29,80,69,58,69,63,56,95,81,67,30.10,29.96,3,0,0,0.00
2013-5-30,90,83,75,72,69,67,77,63,49,30.09,30.01,0,0,0,0.00
2013-5-31,91,85,77,74,69,64,71,59,48,30.09,29.94,3,0,0,0.00
2013-6-1,89,83,76,71,69,66,75,64,51,29.99,29.85,0,0,234,0.00
2013-6-2,88,82,73,72,69,67,84,67,53,29.89,29.73,3,0,27,0.00
2013-6-3,79,73,70,69,67,54,92,82,56,29.83,29.76,7,0,27,0.00
2013-6-4,74,68,60,54,48,44,60,49,39,30.08,29.85,13,2,27,0.00
2013-6-5,71,67,61,55,48,41,76,51,43,30.18,30.06,10,1,28,0.00
2013-6-6,71,65,61,59,57,51,88,75,51,30.11,29.99,10,1,27,0.00
2013-6-7,63,61,59,62,59,58,97,95,88,29.98,29.60,32,7,35,0.94
2013-6-8,77,69,57,67,62,57,97,81,68,30.01,29.53,13,1,28,0.00
2013-6-9,81,74,66,63,62,60,80,66,53,30.14,30.01,3,0,27,0.00
2013-6-10,72,66,62,65,63,61,96,88,74,30.12,29.80,13,2,26,0.00
2013-6-11,80,72,62,70,66,61,98,81,65,29.80,29.57,10,0,25,0.00
2013-6-12,75,72,67,62,57,55,76,61,52,29.81,29.67,13,2,27,0.08
2013-6-13,72,65,56,61,58,54,94,78,58,29.81,29.43,29,3,33,1.36
2013-6-14,70,62,54,60,54,51,93,77,63,29.85,29.48,26,2,28,0.64
2013-6-15,80,73,64,61,57,54,77,60,44,29.97,29.85,7,0,27,0.00
2013-6-16,81,72,68,66,57,53,71,59,50,29.95,29.74,0,0,224,0.00
2013-6-17,84,78,71,68,67,65,82,70,59,29.87,29.81,0,0,22,0.00
2013-6-18,83,74,67,69,66,63,87,76,61,29.86,29.79,7,1,22,0.00
2013-6-19,74,68,62,63,55,50,90,66,45,30.02,29.84,13,3,28,0.00
2013-6-20,78,73,65,60,57,52,66,58,52,30.24,30.14,3,0,25,0.00
2013-6-21,80,74,67,61,56,49,63,54,49,30.27,30.20,3,0,224,0.00
2013-6-22,82,74,68,65,58,51,66,57,50,30.24,30.10,3,0,27,0.00
2013-6-23,85,78,72,72,68,60,84,71,62,30.15,30.01,3,0,27,0.00
2013-6-24,92,84,76,76,72,66,86,68,47,30.03,29.89,7,0,224,0.00
2013-6-25,91,84,76,74,70,66,73,63,52,29.96,29.76,3,0,224,0.00
2013-6-26,89,83,77,72,70,68,76,65,54,29.81,29.74,7,0,27,0.00
2013-6-27,84,79,74,73,71,70,92,77,66,29.80,29.53,13,1,27,0.20
2013-6-28,85,80,74,72,71,66,89,75,63,29.54,29.43,7,0,25,0.00
2013-6-29,83,78,73,73,69,66,84,76,65,29.67,29.46,10,0,27,0.02
2013-6-30,85,78,74,76,72,70,90,83,70,29.88,29.67,7,0,27,0.00
2013-7-1,78,75,73,73,72,70,93,89,86,30.02,29.86,3,0,25,0.00
2013-7-2,83,77,73,76,72,70,92,85,75,30.15,30.01,3,0,19,0.00
2013-7-3,84,78,75,76,73,70,92,84,73,30.22,30.13,3,0,25,0.00
2013-7-4,88,82,77,76,74,73,91,78,64,30.22,30.11,3,0,25,0.00
2013-7-5,90,85,78,77,74,73,84,71,58,30.19,30.04,3,0,25,0.00
2013-7-6,93,88,80,77,75,73,80,66,53,30.11,29.98,3,0,27,0.00
2013-7-7,93,88,83,76,74,68,74,65,56,30.02,29.88,3,0,25,0.00
2013-7-8,89,84,77,72,70,68,76,65,54,30.00,29.92,3,0,25,0.00
2013-7-9,89,84,78,75,71,68,73,66,58,30.04,29.94,7,0,24,0.00
2013-7-10,88,83,77,77,73,70,83,74,62,29.98,29.76,3,0,25,0.00
2013-7-11,86,82,79,75,71,64,80,69,54,29.88,29.77,10,1,27,0.00
2013-7-12,79,74,67,69,66,63,94,76,60,30.07,29.88,29,8,29,1.50
2013-7-13,77,73,67,74,70,66,96,91,85,30.25,30.06,16,4,28,0.00
2013-7-14,90,83,74,77,74,72,94,77,59,30.30,30.19,3,0,12,0.00
2013-7-15,94,88,80,77,74,73,78,65,51,30.21,30.09,7,1,27,0.00
2013-7-16,92,87,81,74,70,68,70,57,47,30.17,30.09,13,2,27,0.03
2013-7-17,95,89,85,74,72,68,66,57,47,30.16,30.01,13,1,27,0.00
2013-7-18,97,91,85,78,74,72,69,59,47,30.03,29.91,7,0,27,0.00
2013-7-19,97,92,87,80,78,76,71,63,53,29.93,29.75,3,0,25,0.00
2013-7-20,93,88,83,78,74,71,73,65,54,29.80,29.69,7,0,24,0.02
2013-7-21,86,82,78,73,68,64,77,63,51,29.93,29.79,16,3,27,0.00
2013-7-22,81,78,75,75,73,70,92,84,74,29.93,29.77,16,4,28,0.00
2013-7-23,87,81,75,75,73,71,95,79,65,29.76,29.52,7,0,25,0.00
2013-7-24,85,80,70,72,67,57,79,66,55,29.90,29.57,16,1,27,0.08
2013-7-25,70,66,65,59,56,53,81,70,63,30.02,29.90,22,6,28,1.50
2013-7-26,82,73,65,67,62,59,81,69,54,30.01,29.95,16,2,27,0.08
2013-7-27,83,76,72,67,66,63,82,71,56,30.02,29.93,7,0,27,0.02
2013-7-28,79,74,72,71,68,66,91,82,71,29.95,29.89,7,0,22,0.02
2013-7-29,84,78,72,70,66,58,91,69,46,30.06,29.91,7,0,27,0.00
2013-7-30,81,75,70,61,59,57,66,58,50,30.14,30.06,7,1,27,0.00
2013-7-31,83,76,70,65,62,59,72,61,52,30.13,30.00,7,1,27,0.00
2013-8-1,77,72,68,69,66,64,93,80,65,30.01,29.80,3,0,27,0.00
2013-8-2,84,77,69,70,66,63,92,70,52,29.88,29.75,7,0,22,0.00
2013-8-3,78,75,73,67,64,60,78,68,60,29.88,29.80,3,0,25,0.00
2013-8-4,79,74,70,65,59,54,77,60,48,29.93,29.81,10,1,26,0.02
2013-8-5,76,70,64,56,53,48,69,54,45,30.02,29.93,10,1,25,0.00
2013-8-6,79,73,69,62,58,54,71,60,48,30.10,30.00,10,1,27,0.00
2013-8-7,78,74,71,69,65,62,86,74,66,30.11,30.03,7,1,27,0.00
2013-8-8,81,75,71,74,71,68,92,87,80,30.04,29.96,10,0,26,0.00
2013-8-9,86,79,74,76,74,71,94,84,72,29.99,29.76,3,0,25,0.00
2013-8-10,83,78,73,73,66,61,83,67,51,29.97,29.82,7,1,27,0.00
2013-8-11,81,75,69,66,59,55,77,59,49,30.09,29.99,10,1,27,0.00
2013-8-12,80,76,72,70,68,64,85,78,64,30.00,29.89,7,0,27,0.00
2013-8-13,77,74,69,71,69,66,93,84,74,29.90,29.67,3,0,24,0.00
2013-8-14,73,68,63,66,55,49,82,62,54,30.02,29.71,13,2,27,0.06
2013-8-15,75,69,63,57,53,51,69,57,46,30.11,30.01,7,1,27,0.00
2013-8-16,78,72,68,59,57,54,71,59,47,30.17,30.08,7,0,27,0.00
2013-8-17,80,74,68,62,58,56,69,59,49,30.24,30.17,10,1,27,0.00
2013-8-18,77,73,70,64,60,56,78,65,51,30.23,30.10,10,2,27,0.00
2013-8-19,81,74,69,66,63,59,78,69,57,30.10,30.00,7,0,27,0.00
2013-8-20,85,78,70,70,67,65,82,70,52,30.09,30.01,7,0,26,0.00
2013-8-21,86,80,75,70,67,64,74,64,49,30.14,30.01,3,0,27,0.00
2013-8-22,80,77,74,72,71,70,87,82,72,30.03,29.84,3,0,27,0.00
2013-8-23,80,76,72,72,63,56,88,65,45,30.07,29.83,16,3,27,0.23
2013-8-24,76,71,66,60,56,52,72,60,46,30.31,30.07,19,3,27,0.02
2013-8-25,80,73,68,61,59,57,75,62,48,30.36,30.20,10,0,22,0.00
2013-8-26,83,76,70,69,63,58,68,64,60,30.20,29.91,3,0,27,0.00
2013-8-27,84,79,74,71,69,68,82,73,63,29.87,29.78,13,1,27,0.06
2013-8-28,85,78,75,72,70,68,86,78,65,29.86,29.81,10,1,27,0.18
2013-8-29,77,74,71,70,68,66,89,82,72,30.00,29.85,16,4,27,0.00
2013-8-30,84,76,70,72,68,65,84,78,64,30.00,29.82,7,0,22,0.00
2013-8-31,85,79,74,75,72,69,85,79,72,29.84,29.75,3,0,26,0.00
2013-9-1,84,79,76,75,73,71,90,82,73,29.83,29.76,7,0,26,0.00
2013-9-2,82,77,73,76,73,69,90,87,78,29.78,29.67,7,0,24,0.06
2013-9-3,80,76,71,72,67,59,93,75,55,29.86,29.67,7,1,25,0.04
2013-9-4,79,72,67,63,60,55,76,65,54,29.97,29.85,7,1,27,0.00
2013-9-5,76,72,66,62,56,46,71,57,40,30.12,29.89,16,2,27,0.00
2013-9-6,68,64,58,51,47,44,61,54,44,30.23,30.10,13,3,27,0.00
2013-9-7,76,69,62,59,53,49,67,58,44,30.10,29.87,3,0,19,0.00
2013-9-8,80,73,66,66,58,47,69,60,43,30.04,29.78,16,2,28,0.00
2013-9-9,70,65,59,60,52,46,76,62,50,30.22,30.04,26,2,27,0.00
2013-9-10,84,76,68,74,69,61,86,78,72,30.14,30.00,7,0,25,0.00
2013-9-11,90,84,78,78,75,72,85,75,65,30.08,29.93,3,0,27,0.00
2013-9-12,84,78,72,74,72,67,90,80,72,29.95,29.65,7,0,27,0.29
2013-9-13,75,70,61,68,61,51,87,74,59,29.82,29.59,10,1,27,0.00
2013-9-14,66,60,56,52,49,46,73,66,58,30.10,29.81,7,1,27,0.00
2013-9-15,70,62,53,56,49,45,76,64,46,30.19,30.05,7,0,22,0.00
2013-9-16,70,65,60,58,55,49,82,70,58,30.20,29.99,19,2,28,0.02
2013-9-17,72,64,50,54,48,38,68,57,50,30.41,30.22,26,2,28,0.26
2013-9-18,72,71,70,55,52,51,57,52,51,30.32,30.16,0,0,0,0.00
2013-9-19,74,72,71,58,55,53,58,55,53,30.17,30.03,0,0,0,0.00
2013-9-20,76,74,72,62,59,57,62,59,58,30.06,29.97,0,0,0,0.00
2013-9-21,77,76,74,65,62,60,66,63,61,29.99,29.63,0,0,0,0.00
2013-9-22,77,75,74,65,61,57,68,62,55,29.88,29.62,0,0,0,0.00
2013-9-23,74,72,70,57,53,52,56,53,50,30.02,29.88,0,0,0,0.00
2013-9-24,74,72,69,54,52,50,52,50,48,30.02,29.83,0,0,0,0.00
2013-9-25,75,72,70,56,53,51,52,50,48,29.93,29.83,0,0,0,0.00
2013-9-26,75,73,72,60,57,55,61,57,52,30.07,29.91,0,0,0,0.00
2013-9-27,74,73,71,58,57,56,61,58,56,30.23,30.07,0,0,0,0.00
2013-9-28,74,73,72,59,57,56,58,57,55,30.29,30.20,0,0,0,0.00
2013-9-29,75,74,73,60,59,58,62,59,58,30.20,30.05,0,0,0,0.00
2013-9-30,75,74,72,60,58,57,61,59,56,30.06,29.93,0,0,0,0.00
2013-10-1,76,75,73,61,59,58,60,59,57,29.97,29.86,0,0,0,0.00
2013-10-2,78,76,75,65,62,60,66,61,59,29.98,29.87,0,0,0,0.00
2013-10-3,79,78,76,64,63,59,63,61,56,30.09,29.98,0,0,0,0.00